sensor_id;sensor_type;location;lat;lon;timestamp;temperature;humidity
18408;DHT22;9330;52.210;21.174;2023-03-16T00:02:18;0.60;99.90
18408;DHT22;9330;52.210;21.174;2023-03-16T00:04:45;0.70;99.90
18408;DHT22;9330;52.210;21.174;2023-03-16T00:07:13;0.70;99.90
18408;DHT22;9330;52.210;21.174;2023-03-16T00:09:40;0.50;99.90
18408;DHT22;9330;52.210;21.174;2023-03-16T00:12:11;0.50;99.90
18408;DHT22;9330;52.210;21.174;2023-03-16T00:14:40;0.50;99.90
18408;DHT22;9330;52.210;21.174;2023-03-16T00:17:08;0.50;99.90
18408;DHT22;9330;52.210;21.174;2023-03-16T00:19:44;0.40;99.90
18408;DHT22;9330;52.210;21.174;2023-03-16T00:22:13;0.40;99.90
18408;DHT22;9330;52.210;21.174;2023-03-16T00:24:40;0.40;99.90
18408;DHT22;9330;52.210;21.174;2023-03-16T00:27:10;0.30;99.90
18408;DHT22;9330;52.210;21.174;2023-03-16T00:29:40;0.40;99.90
18408;DHT22;9330;52.210;21.174;2023-03-16T00:32:12;0.30;99.90
18408;DHT22;9330;52.210;21.174;2023-03-16T00:34:40;0.30;99.90
18408;DHT22;9330;52.210;21.174;2023-03-16T00:37:07;0.20;99.90
18408;DHT22;9330;52.210;21.174;2023-03-16T00:39:34;0.20;99.90
18408;DHT22;9330;52.210;21.174;2023-03-16T00:42:01;0.10;99.90
18408;DHT22;9330;52.210;21.174;2023-03-16T00:44:30;0.10;99.90
18408;DHT22;9330;52.210;21.174;2023-03-16T00:46:57;0.10;99.90
18408;DHT22;9330;52.210;21.174;2023-03-16T00:49:24;0.10;99.90
18408;DHT22;9330;52.210;21.174;2023-03-16T00:51:50;0.20;99.90
18408;DHT22;9330;52.210;21.174;2023-03-16T00:54:17;0.10;99.90
18408;DHT22;9330;52.210;21.174;2023-03-16T00:56:44;-0.10;99.90
18408;DHT22;9330;52.210;21.174;2023-03-16T00:59:11;-0.10;99.90
18408;DHT22;9330;52.210;21.174;2023-03-16T01:01:39;-0.10;99.90
18408;DHT22;9330;52.210;21.174;2023-03-16T01:04:06;-0.10;99.90
18408;DHT22;9330;52.210;21.174;2023-03-16T01:06:33;-0.10;99.90
18408;DHT22;9330;52.210;21.174;2023-03-16T01:09:00;0.30;99.90
18408;DHT22;9330;52.210;21.174;2023-03-16T01:11:30;-0.10;99.90
18408;DHT22;9330;52.210;21.174;2023-03-16T01:13:58;-0.20;99.90
18408;DHT22;9330;52.210;21.174;2023-03-16T01:16:26;-0.20;99.90
18408;DHT22;9330;52.210;21.174;2023-03-16T01:18:54;-0.10;99.90
18408;DHT22;9330;52.210;21.174;2023-03-16T01:21:22;-0.20;99.90
18408;DHT22;9330;52.210;21.174;2023-03-16T01:23:49;-0.20;99.90
18408;DHT22;9330;52.210;21.174;2023-03-16T01:26:18;-0.20;99.90
18408;DHT22;9330;52.210;21.174;2023-03-16T01:28:46;-0.20;99.90
18408;DHT22;9330;52.210;21.174;2023-03-16T01:31:14;-0.30;99.90
18408;DHT22;9330;52.210;21.174;2023-03-16T01:33:41;-0.30;99.90
18408;DHT22;9330;52.210;21.174;2023-03-16T01:36:12;-0.40;99.90
18408;DHT22;9330;52.210;21.174;2023-03-16T01:38:39;-0.40;99.90
18408;DHT22;9330;52.210;21.174;2023-03-16T01:41:07;-0.40;99.90
18408;DHT22;9330;52.210;21.174;2023-03-16T01:43:36;-0.50;99.90
18408;DHT22;9330;52.210;21.174;2023-03-16T01:46:20;-0.30;99.90
18408;DHT22;9330;52.210;21.174;2023-03-16T01:49:06;-0.50;99.90
18408;DHT22;9330;52.210;21.174;2023-03-16T01:51:38;-0.40;99.90
18408;DHT22;9330;52.210;21.174;2023-03-16T01:54:13;-0.50;99.90
18408;DHT22;9330;52.210;21.174;2023-03-16T01:56:43;-0.50;99.90
18408;DHT22;9330;52.210;21.174;2023-03-16T01:59:15;-0.50;99.90
18408;DHT22;9330;52.210;21.174;2023-03-16T02:01:43;-0.60;99.90
18408;DHT22;9330;52.210;21.174;2023-03-16T02:04:35;-0.70;99.90
18408;DHT22;9330;52.210;21.174;2023-03-16T02:07:04;-0.70;99.90
18408;DHT22;9330;52.210;21.174;2023-03-16T02:09:34;-0.80;99.90
18408;DHT22;9330;52.210;21.174;2023-03-16T02:12:02;-0.80;99.90
18408;DHT22;9330;52.210;21.174;2023-03-16T02:14:32;-0.80;99.90
18408;DHT22;9330;52.210;21.174;2023-03-16T02:16:59;-0.80;99.90
18408;DHT22;9330;52.210;21.174;2023-03-16T02:19:34;-0.90;99.90
18408;DHT22;9330;52.210;21.174;2023-03-16T02:22:06;-0.90;99.90
18408;DHT22;9330;52.210;21.174;2023-03-16T02:24:35;-0.90;99.90
18408;DHT22;9330;52.210;21.174;2023-03-16T02:27:04;-1.00;99.90
18408;DHT22;9330;52.210;21.174;2023-03-16T02:29:55;-1.00;99.90
18408;DHT22;9330;52.210;21.174;2023-03-16T02:32:25;-1.00;99.90
18408;DHT22;9330;52.210;21.174;2023-03-16T02:34:54;-1.10;99.90
18408;DHT22;9330;52.210;21.174;2023-03-16T02:37:21;-1.00;99.90
18408;DHT22;9330;52.210;21.174;2023-03-16T02:39:48;-1.10;99.90
18408;DHT22;9330;52.210;21.174;2023-03-16T02:42:17;-1.00;99.90
18408;DHT22;9330;52.210;21.174;2023-03-16T02:44:48;-1.00;99.90
18408;DHT22;9330;52.210;21.174;2023-03-16T02:47:23;-1.10;99.90
18408;DHT22;9330;52.210;21.174;2023-03-16T02:49:53;-1.10;99.90
18408;DHT22;9330;52.210;21.174;2023-03-16T02:52:20;-1.20;99.90
18408;DHT22;9330;52.210;21.174;2023-03-16T02:54:47;-1.10;99.90
18408;DHT22;9330;52.210;21.174;2023-03-16T02:57:14;-1.20;99.90
18408;DHT22;9330;52.210;21.174;2023-03-16T02:59:43;-1.30;99.90
18408;DHT22;9330;52.210;21.174;2023-03-16T03:02:10;-1.20;99.90
18408;DHT22;9330;52.210;21.174;2023-03-16T03:04:38;-1.20;99.90
18408;DHT22;9330;52.210;21.174;2023-03-16T03:07:06;-1.30;99.90
18408;DHT22;9330;52.210;21.174;2023-03-16T03:09:33;-1.30;99.90
18408;DHT22;9330;52.210;21.174;2023-03-16T03:12:00;-1.20;99.90
18408;DHT22;9330;52.210;21.174;2023-03-16T03:14:27;-1.30;99.90
18408;DHT22;9330;52.210;21.174;2023-03-16T03:16:54;-1.30;99.90
18408;DHT22;9330;52.210;21.174;2023-03-16T03:19:22;-1.30;99.90
18408;DHT22;9330;52.210;21.174;2023-03-16T03:21:51;-1.30;99.90
18408;DHT22;9330;52.210;21.174;2023-03-16T03:24:22;-1.40;99.90
18408;DHT22;9330;52.210;21.174;2023-03-16T03:26:49;-1.40;99.90
18408;DHT22;9330;52.210;21.174;2023-03-16T03:29:17;-1.40;99.90
18408;DHT22;9330;52.210;21.174;2023-03-16T03:31:44;-1.50;99.90
18408;DHT22;9330;52.210;21.174;2023-03-16T03:34:10;-1.50;99.90
18408;DHT22;9330;52.210;21.174;2023-03-16T03:36:37;-1.50;99.90
18408;DHT22;9330;52.210;21.174;2023-03-16T03:39:07;-1.50;99.90
18408;DHT22;9330;52.210;21.174;2023-03-16T03:41:34;-1.40;99.90
18408;DHT22;9330;52.210;21.174;2023-03-16T03:44:01;-1.50;99.90
18408;DHT22;9330;52.210;21.174;2023-03-16T03:46:29;-1.60;99.90
18408;DHT22;9330;52.210;21.174;2023-03-16T03:48:56;-1.50;99.90
18408;DHT22;9330;52.210;21.174;2023-03-16T03:51:28;-1.50;99.90
18408;DHT22;9330;52.210;21.174;2023-03-16T03:53:55;-1.60;99.90
18408;DHT22;9330;52.210;21.174;2023-03-16T03:56:24;-1.60;99.90
18408;DHT22;9330;52.210;21.174;2023-03-16T03:58:50;-1.60;99.90
18408;DHT22;9330;52.210;21.174;2023-03-16T04:01:17;-1.60;99.90
18408;DHT22;9330;52.210;21.174;2023-03-16T04:03:44;-1.60;99.90
18408;DHT22;9330;52.210;21.174;2023-03-16T04:06:11;-1.70;99.90
18408;DHT22;9330;52.210;21.174;2023-03-16T04:08:38;-1.30;99.90
18408;DHT22;9330;52.210;21.174;2023-03-16T04:11:05;-1.70;99.90
18408;DHT22;9330;52.210;21.174;2023-03-16T04:13:33;-1.80;99.90
18408;DHT22;9330;52.210;21.174;2023-03-16T04:16:00;-1.40;99.90
18408;DHT22;9330;52.210;21.174;2023-03-16T04:18:28;-1.60;99.90
18408;DHT22;9330;52.210;21.174;2023-03-16T04:21:03;-1.80;99.90
18408;DHT22;9330;52.210;21.174;2023-03-16T04:23:30;-1.80;99.90
18408;DHT22;9330;52.210;21.174;2023-03-16T04:25:58;-1.70;99.90
18408;DHT22;9330;52.210;21.174;2023-03-16T04:28:25;-1.70;99.90
18408;DHT22;9330;52.210;21.174;2023-03-16T04:30:53;-1.70;99.90
18408;DHT22;9330;52.210;21.174;2023-03-16T04:33:20;-1.90;99.90
18408;DHT22;9330;52.210;21.174;2023-03-16T04:35:48;-1.80;99.90
18408;DHT22;9330;52.210;21.174;2023-03-16T04:38:16;-1.80;99.90
18408;DHT22;9330;52.210;21.174;2023-03-16T04:40:43;-1.90;99.90
18408;DHT22;9330;52.210;21.174;2023-03-16T04:43:10;-1.90;99.90
18408;DHT22;9330;52.210;21.174;2023-03-16T04:45:38;-2.00;99.90
18408;DHT22;9330;52.210;21.174;2023-03-16T04:48:07;-1.90;99.90
18408;DHT22;9330;52.210;21.174;2023-03-16T04:50:35;-1.90;99.90
18408;DHT22;9330;52.210;21.174;2023-03-16T04:53:01;-2.00;99.90
18408;DHT22;9330;52.210;21.174;2023-03-16T04:55:29;-2.00;99.90
18408;DHT22;9330;52.210;21.174;2023-03-16T04:57:56;-2.00;99.90
18408;DHT22;9330;52.210;21.174;2023-03-16T05:00:23;-1.90;99.90
18408;DHT22;9330;52.210;21.174;2023-03-16T05:02:51;-2.00;99.90
18408;DHT22;9330;52.210;21.174;2023-03-16T05:05:19;-2.10;99.90
18408;DHT22;9330;52.210;21.174;2023-03-16T05:07:47;-2.00;99.90
18408;DHT22;9330;52.210;21.174;2023-03-16T05:10:16;-2.00;99.90
18408;DHT22;9330;52.210;21.174;2023-03-16T05:12:44;-2.00;99.90
18408;DHT22;9330;52.210;21.174;2023-03-16T05:15:11;-2.00;99.90
18408;DHT22;9330;52.210;21.174;2023-03-16T05:17:38;-2.00;99.90
18408;DHT22;9330;52.210;21.174;2023-03-16T05:20:08;-2.00;99.90
18408;DHT22;9330;52.210;21.174;2023-03-16T05:22:50;-2.00;99.90
18408;DHT22;9330;52.210;21.174;2023-03-16T05:25:19;-2.00;99.90
18408;DHT22;9330;52.210;21.174;2023-03-16T05:27:47;-2.00;99.90
18408;DHT22;9330;52.210;21.174;2023-03-16T05:30:16;-1.90;99.90
18408;DHT22;9330;52.210;21.174;2023-03-16T05:32:43;-1.90;99.90
18408;DHT22;9330;52.210;21.174;2023-03-16T05:35:11;-1.90;99.90
18408;DHT22;9330;52.210;21.174;2023-03-16T05:37:38;-1.80;99.90
18408;DHT22;9330;52.210;21.174;2023-03-16T05:40:09;-1.70;99.90
18408;DHT22;9330;52.210;21.174;2023-03-16T05:42:42;-1.70;99.90
18408;DHT22;9330;52.210;21.174;2023-03-16T05:45:10;-1.70;99.90
18408;DHT22;9330;52.210;21.174;2023-03-16T05:47:37;-1.60;99.90
18408;DHT22;9330;52.210;21.174;2023-03-16T05:50:05;-1.50;99.90
18408;DHT22;9330;52.210;21.174;2023-03-16T05:52:33;-1.50;99.90
18408;DHT22;9330;52.210;21.174;2023-03-16T05:55:01;-1.40;99.90
18408;DHT22;9330;52.210;21.174;2023-03-16T05:57:29;-1.40;99.90
18408;DHT22;9330;52.210;21.174;2023-03-16T05:59:56;-1.30;99.90
18408;DHT22;9330;52.210;21.174;2023-03-16T06:02:23;-1.20;99.90
18408;DHT22;9330;52.210;21.174;2023-03-16T06:04:51;-1.10;99.90
18408;DHT22;9330;52.210;21.174;2023-03-16T06:07:18;-1.00;99.90
18408;DHT22;9330;52.210;21.174;2023-03-16T06:09:45;-1.00;99.90
18408;DHT22;9330;52.210;21.174;2023-03-16T06:12:12;-0.90;99.90
18408;DHT22;9330;52.210;21.174;2023-03-16T06:14:41;-0.80;99.90
18408;DHT22;9330;52.210;21.174;2023-03-16T06:17:08;-0.60;99.90
18408;DHT22;9330;52.210;21.174;2023-03-16T06:19:35;-0.40;99.90
18408;DHT22;9330;52.210;21.174;2023-03-16T06:22:01;-0.20;99.90
18408;DHT22;9330;52.210;21.174;2023-03-16T06:24:28;0.20;99.90
18408;DHT22;9330;52.210;21.174;2023-03-16T06:26:56;0.40;99.90
18408;DHT22;9330;52.210;21.174;2023-03-16T06:29:23;0.70;99.90
18408;DHT22;9330;52.210;21.174;2023-03-16T06:31:51;1.20;99.90
18408;DHT22;9330;52.210;21.174;2023-03-16T06:34:19;1.50;99.90
18408;DHT22;9330;52.210;21.174;2023-03-16T06:36:46;1.70;99.90
18408;DHT22;9330;52.210;21.174;2023-03-16T06:39:13;2.00;99.90
18408;DHT22;9330;52.210;21.174;2023-03-16T06:41:40;2.30;99.90
18408;DHT22;9330;52.210;21.174;2023-03-16T06:44:08;2.40;99.90
18408;DHT22;9330;52.210;21.174;2023-03-16T06:46:36;2.50;99.90
18408;DHT22;9330;52.210;21.174;2023-03-16T06:49:04;3.30;99.90
18408;DHT22;9330;52.210;21.174;2023-03-16T06:51:31;2.90;99.90
18408;DHT22;9330;52.210;21.174;2023-03-16T06:53:58;2.90;99.90
18408;DHT22;9330;52.210;21.174;2023-03-16T06:56:24;3.40;99.90
18408;DHT22;9330;52.210;21.174;2023-03-16T06:58:52;3.30;99.90
18408;DHT22;9330;52.210;21.174;2023-03-16T07:01:19;3.20;99.90
18408;DHT22;9330;52.210;21.174;2023-03-16T07:03:46;3.20;99.90
18408;DHT22;9330;52.210;21.174;2023-03-16T07:06:14;3.60;99.90
18408;DHT22;9330;52.210;21.174;2023-03-16T07:08:41;3.80;99.90
18408;DHT22;9330;52.210;21.174;2023-03-16T07:11:08;3.80;99.90
18408;DHT22;9330;52.210;21.174;2023-03-16T07:13:35;3.50;99.90
18408;DHT22;9330;52.210;21.174;2023-03-16T07:16:02;3.60;99.90
18408;DHT22;9330;52.210;21.174;2023-03-16T07:18:30;3.90;99.90
18408;DHT22;9330;52.210;21.174;2023-03-16T07:20:57;4.00;99.90
18408;DHT22;9330;52.210;21.174;2023-03-16T07:23:26;3.90;99.90
18408;DHT22;9330;52.210;21.174;2023-03-16T07:25:52;4.00;99.90
18408;DHT22;9330;52.210;21.174;2023-03-16T07:28:20;4.10;99.90
18408;DHT22;9330;52.210;21.174;2023-03-16T07:30:47;4.00;99.90
18408;DHT22;9330;52.210;21.174;2023-03-16T07:33:14;4.20;99.90
18408;DHT22;9330;52.210;21.174;2023-03-16T07:35:41;4.50;99.90
18408;DHT22;9330;52.210;21.174;2023-03-16T07:38:08;4.50;99.90
18408;DHT22;9330;52.210;21.174;2023-03-16T07:40:38;4.50;99.90
18408;DHT22;9330;52.210;21.174;2023-03-16T07:43:05;4.40;99.90
18408;DHT22;9330;52.210;21.174;2023-03-16T07:45:32;4.50;99.90
18408;DHT22;9330;52.210;21.174;2023-03-16T07:47:59;4.50;99.90
18408;DHT22;9330;52.210;21.174;2023-03-16T07:50:26;4.60;99.90
18408;DHT22;9330;52.210;21.174;2023-03-16T07:52:53;4.70;99.90
18408;DHT22;9330;52.210;21.174;2023-03-16T07:55:20;4.70;99.90
18408;DHT22;9330;52.210;21.174;2023-03-16T07:57:48;5.00;99.90
18408;DHT22;9330;52.210;21.174;2023-03-16T08:00:16;5.20;99.90
18408;DHT22;9330;52.210;21.174;2023-03-16T08:02:48;5.20;99.90
18408;DHT22;9330;52.210;21.174;2023-03-16T08:05:15;5.30;99.90
18408;DHT22;9330;52.210;21.174;2023-03-16T08:07:42;5.70;99.90
18408;DHT22;9330;52.210;21.174;2023-03-16T08:10:10;5.60;99.90
18408;DHT22;9330;52.210;21.174;2023-03-16T08:12:37;5.70;99.90
18408;DHT22;9330;52.210;21.174;2023-03-16T08:15:07;5.80;99.90
18408;DHT22;9330;52.210;21.174;2023-03-16T08:17:34;5.90;99.90
18408;DHT22;9330;52.210;21.174;2023-03-16T08:20:02;6.10;99.90
18408;DHT22;9330;52.210;21.174;2023-03-16T08:22:32;5.80;99.90
18408;DHT22;9330;52.210;21.174;2023-03-16T08:25:01;5.90;99.90
18408;DHT22;9330;52.210;21.174;2023-03-16T08:27:28;6.20;99.90
18408;DHT22;9330;52.210;21.174;2023-03-16T08:29:55;6.50;99.90
18408;DHT22;9330;52.210;21.174;2023-03-16T08:32:24;6.10;99.90
18408;DHT22;9330;52.210;21.174;2023-03-16T08:34:53;6.70;99.90
18408;DHT22;9330;52.210;21.174;2023-03-16T08:37:19;6.60;99.90
18408;DHT22;9330;52.210;21.174;2023-03-16T08:39:46;7.10;99.90
18408;DHT22;9330;52.210;21.174;2023-03-16T08:42:15;7.20;99.90
18408;DHT22;9330;52.210;21.174;2023-03-16T08:44:44;7.20;99.90
18408;DHT22;9330;52.210;21.174;2023-03-16T08:47:12;7.40;99.90
18408;DHT22;9330;52.210;21.174;2023-03-16T08:49:40;7.50;99.90
18408;DHT22;9330;52.210;21.174;2023-03-16T08:52:09;7.80;99.90
18408;DHT22;9330;52.210;21.174;2023-03-16T08:54:38;7.60;99.90
18408;DHT22;9330;52.210;21.174;2023-03-16T08:57:06;7.50;99.90
18408;DHT22;9330;52.210;21.174;2023-03-16T08:59:33;7.60;99.90
18408;DHT22;9330;52.210;21.174;2023-03-16T09:02:01;7.60;99.90
18408;DHT22;9330;52.210;21.174;2023-03-16T09:04:28;7.60;99.90
18408;DHT22;9330;52.210;21.174;2023-03-16T09:06:58;7.50;99.90
18408;DHT22;9330;52.210;21.174;2023-03-16T09:09:26;7.70;99.90
18408;DHT22;9330;52.210;21.174;2023-03-16T09:11:53;7.80;99.90
18408;DHT22;9330;52.210;21.174;2023-03-16T09:14:20;7.80;99.90
18408;DHT22;9330;52.210;21.174;2023-03-16T09:16:47;7.70;99.90
18408;DHT22;9330;52.210;21.174;2023-03-16T09:19:15;7.80;99.50
18408;DHT22;9330;52.210;21.174;2023-03-16T09:21:41;7.70;99.90
18408;DHT22;9330;52.210;21.174;2023-03-16T09:24:10;7.70;99.90
18408;DHT22;9330;52.210;21.174;2023-03-16T09:26:39;7.90;99.80
18408;DHT22;9330;52.210;21.174;2023-03-16T09:29:07;8.00;99.90
18408;DHT22;9330;52.210;21.174;2023-03-16T09:31:34;8.30;99.90
18408;DHT22;9330;52.210;21.174;2023-03-16T09:34:02;8.30;97.20
18408;DHT22;9330;52.210;21.174;2023-03-16T09:36:29;8.20;97.00
18408;DHT22;9330;52.210;21.174;2023-03-16T09:38:56;7.80;96.90
18408;DHT22;9330;52.210;21.174;2023-03-16T09:41:33;7.60;97.80
18408;DHT22;9330;52.210;21.174;2023-03-16T09:44:12;7.10;96.60
18408;DHT22;9330;52.210;21.174;2023-03-16T09:46:44;6.80;98.80
18408;DHT22;9330;52.210;21.174;2023-03-16T09:49:16;6.50;99.90
18408;DHT22;9330;52.210;21.174;2023-03-16T09:51:49;6.30;99.90
18408;DHT22;9330;52.210;21.174;2023-03-16T09:54:23;6.20;99.90
18408;DHT22;9330;52.210;21.174;2023-03-16T09:56:54;5.90;99.90
18408;DHT22;9330;52.210;21.174;2023-03-16T09:59:23;5.80;99.90
18408;DHT22;9330;52.210;21.174;2023-03-16T10:02:02;5.70;99.90
18408;DHT22;9330;52.210;21.174;2023-03-16T10:04:43;5.70;99.90
18408;DHT22;9330;52.210;21.174;2023-03-16T10:07:22;5.60;99.90
18408;DHT22;9330;52.210;21.174;2023-03-16T10:09:55;5.70;99.90
18408;DHT22;9330;52.210;21.174;2023-03-16T10:12:29;5.80;99.90
18408;DHT22;9330;52.210;21.174;2023-03-16T10:15:00;5.90;99.90
18408;DHT22;9330;52.210;21.174;2023-03-16T10:17:34;6.00;99.90
18408;DHT22;9330;52.210;21.174;2023-03-16T10:20:05;6.10;99.90
18408;DHT22;9330;52.210;21.174;2023-03-16T10:22:36;6.30;99.90
18408;DHT22;9330;52.210;21.174;2023-03-16T10:25:07;6.40;99.90
18408;DHT22;9330;52.210;21.174;2023-03-16T10:27:40;6.50;99.90
18408;DHT22;9330;52.210;21.174;2023-03-16T10:30:19;6.60;99.90
18408;DHT22;9330;52.210;21.174;2023-03-16T10:32:47;6.80;99.90
18408;DHT22;9330;52.210;21.174;2023-03-16T10:35:29;6.90;99.90
18408;DHT22;9330;52.210;21.174;2023-03-16T10:38:05;7.00;98.10
18408;DHT22;9330;52.210;21.174;2023-03-16T10:40:36;7.00;98.40
18408;DHT22;9330;52.210;21.174;2023-03-16T10:43:06;6.90;97.80
18408;DHT22;9330;52.210;21.174;2023-03-16T10:45:34;7.00;96.70
18408;DHT22;9330;52.210;21.174;2023-03-16T10:48:06;6.80;96.80
18408;DHT22;9330;52.210;21.174;2023-03-16T10:50:34;6.70;96.20
18408;DHT22;9330;52.210;21.174;2023-03-16T10:53:02;6.90;98.70
18408;DHT22;9330;52.210;21.174;2023-03-16T10:55:39;6.90;95.80
18408;DHT22;9330;52.210;21.174;2023-03-16T10:58:08;7.00;93.70
18408;DHT22;9330;52.210;21.174;2023-03-16T11:00:36;7.10;94.70
18408;DHT22;9330;52.210;21.174;2023-03-16T11:03:18;7.30;92.40
18408;DHT22;9330;52.210;21.174;2023-03-16T11:05:54;7.50;94.30
18408;DHT22;9330;52.210;21.174;2023-03-16T11:08:24;7.50;91.60
18408;DHT22;9330;52.210;21.174;2023-03-16T11:10:54;7.50;88.80
18408;DHT22;9330;52.210;21.174;2023-03-16T11:13:30;7.40;88.30
18408;DHT22;9330;52.210;21.174;2023-03-16T11:16:02;7.30;89.40
18408;DHT22;9330;52.210;21.174;2023-03-16T11:18:34;7.40;93.50
18408;DHT22;9330;52.210;21.174;2023-03-16T11:21:10;7.60;86.40
18408;DHT22;9330;52.210;21.174;2023-03-16T11:23:42;7.80;87.30
18408;DHT22;9330;52.210;21.174;2023-03-16T11:26:17;7.70;84.00
18408;DHT22;9330;52.210;21.174;2023-03-16T11:28:53;7.60;82.30
18408;DHT22;9330;52.210;21.174;2023-03-16T11:31:36;7.40;82.70
18408;DHT22;9330;52.210;21.174;2023-03-16T11:34:13;7.30;84.00
18408;DHT22;9330;52.210;21.174;2023-03-16T11:36:46;7.20;88.60
18408;DHT22;9330;52.210;21.174;2023-03-16T11:39:27;7.50;92.40
18408;DHT22;9330;52.210;21.174;2023-03-16T11:42:03;7.50;84.90
18408;DHT22;9330;52.210;21.174;2023-03-16T11:44:37;7.70;84.60
18408;DHT22;9330;52.210;21.174;2023-03-16T11:47:22;8.10;85.90
18408;DHT22;9330;52.210;21.174;2023-03-16T11:49:57;8.30;85.00
18408;DHT22;9330;52.210;21.174;2023-03-16T11:52:36;8.30;72.90
18408;DHT22;9330;52.210;21.174;2023-03-16T11:55:19;8.20;76.90
18408;DHT22;9330;52.210;21.174;2023-03-16T11:57:55;8.00;70.80
18408;DHT22;9330;52.210;21.174;2023-03-16T12:00:30;7.80;68.00
18408;DHT22;9330;52.210;21.174;2023-03-16T12:03:34;7.60;71.60
18408;DHT22;9330;52.210;21.174;2023-03-16T12:06:04;7.40;76.40
18408;DHT22;9330;52.210;21.174;2023-03-16T12:09:03;7.20;79.90
18408;DHT22;9330;52.210;21.174;2023-03-16T12:11:39;6.90;84.70
18408;DHT22;9330;52.210;21.174;2023-03-16T12:14:17;6.90;85.80
18408;DHT22;9330;52.210;21.174;2023-03-16T12:16:52;6.60;90.10
18408;DHT22;9330;52.210;21.174;2023-03-16T12:19:25;6.50;91.90
18408;DHT22;9330;52.210;21.174;2023-03-16T12:22:01;6.40;95.00
18408;DHT22;9330;52.210;21.174;2023-03-16T12:24:34;6.40;97.20
18408;DHT22;9330;52.210;21.174;2023-03-16T12:27:04;6.30;96.00
18408;DHT22;9330;52.210;21.174;2023-03-16T12:29:36;6.40;94.20
18408;DHT22;9330;52.210;21.174;2023-03-16T12:32:11;6.20;95.60
18408;DHT22;9330;52.210;21.174;2023-03-16T12:34:45;6.20;97.60
18408;DHT22;9330;52.210;21.174;2023-03-16T12:37:18;6.20;97.80
18408;DHT22;9330;52.210;21.174;2023-03-16T12:39:58;6.20;97.40
18408;DHT22;9330;52.210;21.174;2023-03-16T12:42:43;6.10;97.30
18408;DHT22;9330;52.210;21.174;2023-03-16T12:45:16;6.10;99.10
18408;DHT22;9330;52.210;21.174;2023-03-16T12:47:59;6.10;98.50
18408;DHT22;9330;52.210;21.174;2023-03-16T12:50:28;6.20;99.60
18408;DHT22;9330;52.210;21.174;2023-03-16T12:52:56;6.20;99.90
18408;DHT22;9330;52.210;21.174;2023-03-16T12:55:24;6.20;99.90
18408;DHT22;9330;52.210;21.174;2023-03-16T12:57:59;6.20;99.90
18408;DHT22;9330;52.210;21.174;2023-03-16T13:00:33;6.20;98.30
18408;DHT22;9330;52.210;21.174;2023-03-16T13:03:04;6.20;96.40
18408;DHT22;9330;52.210;21.174;2023-03-16T13:05:35;6.40;96.40
18408;DHT22;9330;52.210;21.174;2023-03-16T13:08:07;6.40;98.00
18408;DHT22;9330;52.210;21.174;2023-03-16T13:10:34;6.20;96.80
18408;DHT22;9330;52.210;21.174;2023-03-16T13:13:13;6.30;98.00
18408;DHT22;9330;52.210;21.174;2023-03-16T13:15:41;6.30;98.10
18408;DHT22;9330;52.210;21.174;2023-03-16T13:18:21;6.20;98.20
18408;DHT22;9330;52.210;21.174;2023-03-16T13:20:54;6.40;99.60
18408;DHT22;9330;52.210;21.174;2023-03-16T13:23:24;6.40;96.90
18408;DHT22;9330;52.210;21.174;2023-03-16T13:26:03;6.50;95.20
18408;DHT22;9330;52.210;21.174;2023-03-16T13:28:32;6.30;95.20
18408;DHT22;9330;52.210;21.174;2023-03-16T13:31:01;6.30;94.10
18408;DHT22;9330;52.210;21.174;2023-03-16T13:33:32;6.30;94.50
18408;DHT22;9330;52.210;21.174;2023-03-16T13:36:03;6.30;94.20
18408;DHT22;9330;52.210;21.174;2023-03-16T13:38:31;6.30;95.60
18408;DHT22;9330;52.210;21.174;2023-03-16T13:41:02;6.30;95.00
18408;DHT22;9330;52.210;21.174;2023-03-16T13:43:30;6.30;94.90
18408;DHT22;9330;52.210;21.174;2023-03-16T13:46:00;6.50;95.20
18408;DHT22;9330;52.210;21.174;2023-03-16T13:48:29;6.60;96.20
18408;DHT22;9330;52.210;21.174;2023-03-16T13:51:02;6.80;95.40
18408;DHT22;9330;52.210;21.174;2023-03-16T13:53:30;6.90;96.30
18408;DHT22;9330;52.210;21.174;2023-03-16T13:55:59;6.90;95.00
18408;DHT22;9330;52.210;21.174;2023-03-16T13:58:30;7.10;94.20
18408;DHT22;9330;52.210;21.174;2023-03-16T14:01:00;6.90;94.60
18408;DHT22;9330;52.210;21.174;2023-03-16T14:03:33;6.90;95.10
18408;DHT22;9330;52.210;21.174;2023-03-16T14:06:00;6.90;92.10
18408;DHT22;9330;52.210;21.174;2023-03-16T14:08:28;6.70;90.80
18408;DHT22;9330;52.210;21.174;2023-03-16T14:10:56;6.80;90.50
18408;DHT22;9330;52.210;21.174;2023-03-16T14:13:30;6.80;90.70
18408;DHT22;9330;52.210;21.174;2023-03-16T14:16:00;6.90;87.10
18408;DHT22;9330;52.210;21.174;2023-03-16T14:18:33;6.90;89.80
18408;DHT22;9330;52.210;21.174;2023-03-16T14:21:05;7.00;77.10
18408;DHT22;9330;52.210;21.174;2023-03-16T14:23:36;7.00;78.10
18408;DHT22;9330;52.210;21.174;2023-03-16T14:26:09;6.90;67.90
18408;DHT22;9330;52.210;21.174;2023-03-16T14:28:37;6.80;67.00
18408;DHT22;9330;52.210;21.174;2023-03-16T14:31:05;6.90;66.50
18408;DHT22;9330;52.210;21.174;2023-03-16T14:33:35;6.70;68.90
18408;DHT22;9330;52.210;21.174;2023-03-16T14:36:11;6.70;68.10
18408;DHT22;9330;52.210;21.174;2023-03-16T14:38:39;6.60;72.70
18408;DHT22;9330;52.210;21.174;2023-03-16T14:41:18;6.60;68.70
18408;DHT22;9330;52.210;21.174;2023-03-16T14:43:48;6.50;70.20
18408;DHT22;9330;52.210;21.174;2023-03-16T14:46:22;6.50;71.10
18408;DHT22;9330;52.210;21.174;2023-03-16T14:48:59;6.50;75.30
18408;DHT22;9330;52.210;21.174;2023-03-16T14:51:27;6.40;76.80
18408;DHT22;9330;52.210;21.174;2023-03-16T14:53:56;6.40;80.30
18408;DHT22;9330;52.210;21.174;2023-03-16T14:56:23;6.50;77.30
18408;DHT22;9330;52.210;21.174;2023-03-16T14:58:57;6.40;72.80
18408;DHT22;9330;52.210;21.174;2023-03-16T15:01:24;6.30;73.30
18408;DHT22;9330;52.210;21.174;2023-03-16T15:03:52;6.30;76.50
18408;DHT22;9330;52.210;21.174;2023-03-16T15:06:20;6.20;80.30
18408;DHT22;9330;52.210;21.174;2023-03-16T15:08:47;6.20;81.60
18408;DHT22;9330;52.210;21.174;2023-03-16T15:11:16;6.40;83.20
18408;DHT22;9330;52.210;21.174;2023-03-16T15:13:46;6.10;80.30
18408;DHT22;9330;52.210;21.174;2023-03-16T15:16:29;6.30;84.90
18408;DHT22;9330;52.210;21.174;2023-03-16T15:18:58;6.10;83.50
18408;DHT22;9330;52.210;21.174;2023-03-16T15:21:27;6.30;82.60
18408;DHT22;9330;52.210;21.174;2023-03-16T15:23:55;6.20;83.00
18408;DHT22;9330;52.210;21.174;2023-03-16T15:26:25;6.10;84.80
18408;DHT22;9330;52.210;21.174;2023-03-16T15:28:53;6.10;90.80
18408;DHT22;9330;52.210;21.174;2023-03-16T15:31:21;6.10;86.90
18408;DHT22;9330;52.210;21.174;2023-03-16T15:33:48;6.00;88.90
18408;DHT22;9330;52.210;21.174;2023-03-16T15:36:18;6.00;90.60
18408;DHT22;9330;52.210;21.174;2023-03-16T15:38:47;6.00;92.30
18408;DHT22;9330;52.210;21.174;2023-03-16T15:41:14;6.10;93.80
18408;DHT22;9330;52.210;21.174;2023-03-16T15:43:41;6.00;93.30
18408;DHT22;9330;52.210;21.174;2023-03-16T15:46:10;6.10;94.40
18408;DHT22;9330;52.210;21.174;2023-03-16T15:48:37;6.20;95.20
18408;DHT22;9330;52.210;21.174;2023-03-16T15:51:07;6.10;96.40
18408;DHT22;9330;52.210;21.174;2023-03-16T15:53:37;6.10;94.70
18408;DHT22;9330;52.210;21.174;2023-03-16T15:56:08;6.20;95.90
18408;DHT22;9330;52.210;21.174;2023-03-16T15:58:36;6.00;96.20